Time;durP1;ratioP1;P1;durP2;ratioP2;P2;SDS_P1;SDS_P2;PMS_P1;PMS_P2;Temp;Humidity;BMP_temperature;BMP_pressure;BME280_temperature;BME280_humidity;BME280_pressure;Samples;Min_cycle;Max_cycle;Signal;HPM_P1;HPM_P2
2022/08/22 00:02:33;;;;;;;13.07;6.13;;;19.40;76.10;;;;;;5019058;28;20094;-73
2022/08/22 00:05:19;;;;;;;14.18;6.97;;;19.20;76.50;;;;;;5020248;28;20041;-72
2022/08/22 00:08:13;;;;;;;20.23;7.80;;;19.10;76.80;;;;;;5006433;28;20037;-74
2022/08/22 00:11:14;;;;;;;18.48;7.57;;;19.10;76.80;;;;;;5012389;28;20045;-73
2022/08/22 00:14:14;;;;;;;15.95;6.90;;;19.00;77.20;;;;;;4971227;28;20504;-73
2022/08/22 00:17:11;;;;;;;14.93;5.72;;;19.00;77.30;;;;;;5003947;28;20042;-74
2022/08/22 00:20:03;;;;;;;10.77;6.25;;;19.10;77.40;;;;;;5018903;28;20037;-73
2022/08/22 00:22:43;;;;;;;14.68;6.90;;;19.10;77.30;;;;;;5015229;28;20041;-73
2022/08/22 00:25:35;;;;;;;18.42;7.30;;;19.10;76.90;;;;;;5018788;28;20095;-73
2022/08/22 00:28:09;;;;;;;14.20;7.05;;;19.10;76.80;;;;;;5042762;28;20042;-73
2022/08/22 00:30:45;;;;;;;14.30;6.80;;;19.10;76.70;;;;;;5015803;28;20255;-73
2022/08/22 00:33:34;;;;;;;15.60;7.38;;;19.10;76.60;;;;;;5010033;28;20042;-73
2022/08/22 00:36:17;;;;;;;12.20;5.72;;;19.00;76.60;;;;;;5020396;28;20034;-73
2022/08/22 00:38:58;;;;;;;15.18;6.57;;;19.10;76.70;;;;;;5021200;28;20030;-74
2022/08/22 00:41:47;;;;;;;13.95;7.47;;;19.10;76.60;;;;;;5020191;28;20401;-74
2022/08/22 00:44:50;;;;;;;11.98;6.43;;;19.10;76.40;;;;;;5022763;28;20067;-74
2022/08/22 00:47:35;;;;;;;12.75;6.57;;;19.10;76.40;;;;;;5016316;28;20492;-73
2022/08/22 00:50:32;;;;;;;17.17;6.25;;;19.10;76.30;;;;;;5019747;28;20189;-73
2022/08/22 00:53:40;;;;;;;15.52;6.93;;;19.10;76.50;;;;;;5013497;28;20034;-73
2022/08/22 00:56:52;;;;;;;13.02;6.10;;;19.10;76.40;;;;;;5020498;28;20486;-73
2022/08/22 00:59:49;;;;;;;16.40;7.13;;;19.10;76.20;;;;;;5006285;28;20037;-74
2022/08/22 01:02:36;;;;;;;16.75;6.65;;;19.20;76.00;;;;;;5014993;28;20045;-73
2022/08/22 01:05:11;;;;;;;15.10;6.53;;;19.10;75.60;;;;;;5011354;28;20075;-73
2022/08/22 01:08:14;;;;;;;10.57;5.68;;;19.20;75.40;;;;;;5010441;28;20041;-73
2022/08/22 01:11:00;;;;;;;14.57;6.30;;;19.20;75.40;;;;;;5015386;28;20045;-73
2022/08/22 01:14:19;;;;;;;14.30;7.00;;;19.20;75.30;;;;;;5021124;28;20144;-73
2022/08/22 01:16:45;;;;;;;16.08;6.35;;;19.20;75.30;;;;;;4949280;28;20042;-73
2022/08/22 01:19:13;;;;;;;15.32;6.32;;;19.20;75.10;;;;;;5003943;28;20037;-73
2022/08/22 01:21:45;;;;;;;15.20;6.63;;;19.20;75.10;;;;;;5021484;28;20041;-73
2022/08/22 01:24:14;;;;;;;14.48;6.82;;;19.30;75.00;;;;;;5011751;28;20041;-73
2022/08/22 01:26:51;;;;;;;14.43;7.10;;;19.30;74.80;;;;;;5015043;28;20095;-73
2022/08/22 01:29:49;;;;;;;18.48;7.28;;;19.20;74.90;;;;;;5010817;28;20030;-73
2022/08/22 01:32:46;;;;;;;12.25;6.35;;;19.30;74.90;;;;;;5020597;28;20295;-73
2022/08/22 01:35:46;;;;;;;12.15;6.35;;;19.30;74.90;;;;;;5012795;28;20481;-73
2022/08/22 01:38:33;;;;;;;13.40;6.45;;;19.30;75.00;;;;;;5013093;28;20559;-73
2022/08/22 01:41:22;;;;;;;11.82;5.72;;;19.20;75.10;;;;;;5014783;28;20112;-73
2022/08/22 01:44:07;;;;;;;14.05;6.28;;;19.20;75.40;;;;;;5004427;28;20058;-73
2022/08/22 01:46:41;;;;;;;11.95;5.70;;;19.20;75.30;;;;;;5017001;28;20124;-73
2022/08/22 01:49:42;;;;;;;11.90;5.68;;;19.10;75.10;;;;;;5022457;28;20037;-73
2022/08/22 01:52:33;;;;;;;13.20;6.30;;;19.10;75.30;;;;;;4946897;28;20054;-73
2022/08/22 01:55:05;;;;;;;16.20;7.15;;;19.10;75.40;;;;;;5005516;28;20095;-74
2022/08/22 01:57:31;;;;;;;11.65;5.80;;;19.10;75.30;;;;;;5013596;28;20034;-73
2022/08/22 02:00:00;;;;;;;16.13;6.47;;;19.20;75.30;;;;;;5014795;28;20380;-73
2022/08/22 02:02:32;;;;;;;11.60;5.22;;;19.20;74.70;;;;;;5013932;28;20033;-73
2022/08/22 02:05:17;;;;;;;14.88;5.43;;;19.10;74.60;;;;;;5005735;28;20200;-73
2022/08/22 02:08:00;;;;;;;14.02;5.20;;;19.10;74.50;;;;;;5008698;28;20210;-73
2022/08/22 02:11:08;;;;;;;11.75;5.15;;;19.10;74.60;;;;;;5008710;28;20038;-73
2022/08/22 02:13:41;;;;;;;13.13;5.68;;;19.10;74.50;;;;;;4981012;28;20463;-73
2022/08/22 02:16:28;;;;;;;13.85;6.35;;;19.10;74.40;;;;;;4994268;28;20096;-74
2022/08/22 02:19:15;;;;;;;11.60;6.03;;;19.10;74.10;;;;;;4993718;28;20496;-73
2022/08/22 02:21:55;;;;;;;14.23;6.65;;;19.10;74.20;;;;;;4987216;28;20490;-73
2022/08/22 02:24:36;;;;;;;12.88;6.05;;;19.20;73.90;;;;;;4991003;28;20049;-74
2022/08/22 02:27:16;;;;;;;15.90;7.22;;;19.10;73.90;;;;;;4992152;28;20057;-74
2022/08/22 02:29:52;;;;;;;14.45;6.65;;;19.10;73.90;;;;;;4976018;28;20096;-73
2022/08/22 02:32:35;;;;;;;12.05;5.90;;;19.10;74.00;;;;;;4989487;28;20443;-73
2022/08/22 02:35:07;;;;;;;10.57;5.15;;;19.20;73.90;;;;;;4989828;28;20447;-74
2022/08/22 02:38:05;;;;;;;13.77;5.60;;;19.20;74.10;;;;;;4989120;28;20108;-73
2022/08/22 02:40:42;;;;;;;15.05;7.05;;;19.20;74.50;;;;;;4987556;28;20046;-73
2022/08/22 02:43:17;;;;;;;13.75;6.55;;;19.20;74.70;;;;;;4985649;28;20390;-74
2022/08/22 02:46:10;;;;;;;10.95;6.43;;;19.10;74.90;;;;;;4986157;28;20493;-74
2022/08/22 02:48:57;;;;;;;13.75;6.05;;;19.10;75.00;;;;;;4987651;28;20046;-74
2022/08/22 02:51:56;;;;;;;14.80;7.07;;;19.10;75.10;;;;;;5017693;28;20035;-73
2022/08/22 02:54:29;;;;;;;15.10;7.28;;;19.10;75.60;;;;;;4986524;28;20540;-73
2022/08/22 02:57:30;;;;;;;14.27;6.72;;;19.10;76.30;;;;;;4990354;28;20091;-73
2022/08/22 03:00:14;;;;;;;15.68;7.03;;;19.00;75.50;;;;;;4988402;28;20490;-73
2022/08/22 03:02:55;;;;;;;17.00;7.00;;;18.90;76.60;;;;;;4988396;28;20517;-73
2022/08/22 03:05:25;;;;;;;12.32;6.57;;;18.90;76.60;;;;;;5026072;28;20280;-73
2022/08/22 03:08:09;;;;;;;12.65;7.18;;;18.90;76.50;;;;;;5014964;28;20409;-74
2022/08/22 03:10:42;;;;;;;16.58;7.00;;;18.80;76.50;;;;;;4994173;28;20041;-73
2022/08/22 03:13:40;;;;;;;13.85;7.45;;;18.70;76.70;;;;;;4987620;28;20486;-73
2022/08/22 03:16:26;;;;;;;14.82;7.07;;;18.60;77.20;;;;;;4990691;28;20057;-74
2022/08/22 03:19:23;;;;;;;14.55;6.35;;;18.50;77.50;;;;;;4987886;28;20130;-73
2022/08/22 03:22:01;;;;;;;13.93;7.65;;;18.40;77.70;;;;;;4987977;28;20030;-73
2022/08/22 03:24:53;;;;;;;13.02;6.93;;;18.30;77.90;;;;;;4990304;28;20042;-72
2022/08/22 03:27:26;;;;;;;14.90;6.50;;;18.30;77.90;;;;;;4981378;28;20043;-73
2022/08/22 03:30:11;;;;;;;21.15;7.97;;;18.30;78.10;;;;;;4989663;28;20121;-73
2022/08/22 03:32:50;;;;;;;17.60;6.50;;;18.30;77.90;;;;;;5022762;28;20102;-73
2022/08/22 03:35:37;;;;;;;14.63;6.53;;;18.40;77.60;;;;;;4991428;28;21822;-72
2022/08/22 03:38:24;;;;;;;15.95;7.00;;;18.30;77.50;;;;;;4990056;28;20038;-72
2022/08/22 03:40:56;;;;;;;15.35;7.20;;;18.30;77.60;;;;;;4985057;28;20605;-73
2022/08/22 03:43:38;;;;;;;15.88;7.40;;;18.30;77.80;;;;;;4986302;28;20041;-73
2022/08/22 03:46:30;;;;;;;14.40;7.07;;;18.30;77.80;;;;;;4987678;28;20514;-73
2022/08/22 03:48:58;;;;;;;15.38;6.72;;;18.30;77.80;;;;;;4996021;28;20399;-73
2022/08/22 03:51:32;;;;;;;16.33;7.13;;;18.30;77.90;;;;;;4993077;28;20069;-73
2022/08/22 03:54:14;;;;;;;11.95;5.85;;;18.30;77.80;;;;;;4999564;28;20033;-73
2022/08/22 03:57:01;;;;;;;14.98;7.15;;;18.40;78.10;;;;;;4986053;28;20107;-73
2022/08/22 03:59:55;;;;;;;17.83;7.35;;;18.40;78.00;;;;;;4989434;28;20057;-74
2022/08/22 04:02:38;;;;;;;12.95;6.47;;;18.40;78.10;;;;;;4997417;28;20160;-72
2022/08/22 04:05:23;;;;;;;15.03;7.60;;;18.40;78.00;;;;;;4999121;28;20101;-72
2022/08/22 04:07:52;;;;;;;;;;;18.50;77.60;;;;;;4989652;28;20054;-73
2022/08/22 04:10:39;;;;;;;16.52;6.88;;;18.50;77.60;;;;;;4985036;28;19918;-73
2022/08/22 04:13:39;;;;;;;13.52;5.90;;;18.50;77.60;;;;;;4990220;28;20042;-74
2022/08/22 04:16:39;;;;;;;13.25;6.03;;;18.50;77.80;;;;;;4987954;28;20489;-72
2022/08/22 04:19:20;;;;;;;15.35;6.47;;;18.50;77.80;;;;;;4999273;28;20478;-73
2022/08/22 04:22:01;;;;;;;14.50;7.43;;;18.60;77.60;;;;;;4987337;28;20042;-72
2022/08/22 04:24:42;;;;;;;13.20;6.35;;;18.60;77.70;;;;;;4985227;28;20045;-74
2022/08/22 04:27:33;;;;;;;12.85;6.28;;;18.60;77.70;;;;;;4990772;28;20038;-73
2022/08/22 04:30:24;;;;;;;16.50;6.45;;;18.60;77.50;;;;;;4994946;28;20038;-73
2022/08/22 04:33:05;;;;;;;16.42;7.07;;;18.60;77.40;;;;;;5018389;28;20490;-74
2022/08/22 04:35:42;;;;;;;18.17;7.75;;;18.50;77.50;;;;;;5025910;28;20103;-74
2022/08/22 04:38:25;;;;;;;13.30;6.68;;;18.50;77.60;;;;;;4992386;28;20266;-73
2022/08/22 04:41:04;;;;;;;17.58;7.47;;;18.60;77.60;;;;;;4986163;28;20041;-73
2022/08/22 04:43:50;;;;;;;14.45;7.13;;;18.50;77.60;;;;;;4992544;28;20038;-73
2022/08/22 04:46:28;;;;;;;15.27;7.63;;;18.50;77.70;;;;;;4993698;28;20077;-73
2022/08/22 04:49:04;;;;;;;15.18;7.10;;;18.50;77.80;;;;;;4995632;28;20042;-73
2022/08/22 04:51:46;;;;;;;14.75;7.22;;;18.50;77.70;;;;;;4997113;28;20120;-75
2022/08/22 04:54:53;;;;;;;14.23;6.43;;;18.50;77.70;;;;;;4993577;28;20110;-74
2022/08/22 04:57:37;;;;;;;14.82;6.82;;;18.40;77.60;;;;;;4990394;28;20053;-73
2022/08/22 05:00:08;;;;;;;13.88;6.10;;;18.50;77.70;;;;;;5002828;28;20141;-74
2022/08/22 05:02:37;;;;;;;14.52;6.85;;;18.50;77.50;;;;;;4995546;28;20031;-73
2022/08/22 05:05:04;;;;;;;15.68;6.88;;;18.60;77.50;;;;;;4992865;28;20038;-73
2022/08/22 05:07:38;;;;;;;14.30;6.38;;;18.60;77.20;;;;;;4986444;28;20034;-73
2022/08/22 05:10:20;;;;;;;18.77;7.68;;;18.60;77.40;;;;;;4992310;28;20030;-73
2022/08/22 05:12:59;;;;;;;17.38;7.43;;;18.60;77.00;;;;;;4991342;28;20406;-73
2022/08/22 05:15:43;;;;;;;14.45;6.25;;;18.60;77.10;;;;;;4993776;28;20038;-72
2022/08/22 05:18:17;;;;;;;12.85;6.50;;;18.60;77.30;;;;;;4983374;28;20094;-73
2022/08/22 05:20:45;;;;;;;17.13;7.25;;;18.60;77.30;;;;;;4988888;28;20065;-73
2022/08/22 05:23:28;;;;;;;16.67;6.68;;;18.60;77.40;;;;;;4994289;28;20037;-73
2022/08/22 05:25:58;;;;;;;16.77;7.60;;;18.60;77.70;;;;;;4996059;28;20026;-72
2022/08/22 05:28:34;;;;;;;14.45;6.22;;;18.60;77.50;;;;;;4987649;28;20031;-72
2022/08/22 05:31:08;;;;;;;15.05;7.07;;;18.60;77.40;;;;;;4984354;28;20030;-73
2022/08/22 05:33:42;;;;;;;16.88;6.97;;;18.60;77.30;;;;;;4993811;28;20061;-74
2022/08/22 05:36:24;;;;;;;18.40;7.28;;;18.60;77.50;;;;;;4989904;28;20034;-73
2022/08/22 05:38:55;;;;;;;16.42;7.55;;;18.60;77.30;;;;;;4988641;28;20031;-73
2022/08/22 05:41:25;;;;;;;19.98;7.18;;;18.50;77.60;;;;;;4993019;28;20038;-73
2022/08/22 05:43:52;;;;;;;17.98;8.32;;;18.40;77.70;;;;;;4995034;28;20045;-72
2022/08/22 05:46:28;;;;;;;12.50;7.03;;;18.40;77.90;;;;;;4985040;28;20390;-73
2022/08/22 05:49:00;;;;;;;15.15;7.60;;;18.40;78.00;;;;;;4990042;28;20153;-72
2022/08/22 05:51:46;;;;;;;12.88;6.80;;;18.50;78.10;;;;;;4987619;28;20109;-73
2022/08/22 05:54:18;;;;;;;16.42;7.03;;;18.50;77.90;;;;;;4987863;28;20038;-72
2022/08/22 05:56:51;;;;;;;13.02;6.57;;;18.60;77.60;;;;;;4989797;28;20053;-74
2022/08/22 05:59:28;;;;;;;17.42;7.68;;;18.60;77.40;;;;;;4990459;28;20049;-73
2022/08/22 06:02:12;;;;;;;12.82;6.78;;;18.60;77.30;;;;;;4990396;28;20031;-72
2022/08/22 06:04:53;;;;;;;11.60;6.50;;;18.70;77.30;;;;;;5011086;28;20542;-73
2022/08/22 06:07:26;;;;;;;15.43;7.68;;;18.80;77.20;;;;;;5006279;28;20034;-73
2022/08/22 06:10:18;;;;;;;12.05;6.85;;;18.80;76.60;;;;;;5010024;28;20049;-72
2022/08/22 06:13:01;;;;;;;11.60;6.68;;;18.90;76.60;;;;;;5035877;28;20045;-74
2022/08/22 06:15:45;;;;;;;16.83;7.15;;;18.90;76.60;;;;;;5015205;28;20041;-73
2022/08/22 06:18:15;;;;;;;16.08;7.57;;;19.00;76.40;;;;;;5005705;28;20037;-73
2022/08/22 06:20:52;;;;;;;16.85;7.05;;;19.00;76.30;;;;;;5007723;28;20029;-73
2022/08/22 06:23:29;;;;;;;12.15;6.63;;;19.00;76.30;;;;;;5037789;28;20485;-72
2022/08/22 06:25:59;;;;;;;13.38;7.28;;;19.00;76.10;;;;;;5007423;28;20509;-72
2022/08/22 06:28:38;;;;;;;15.77;7.60;;;19.00;76.20;;;;;;5005905;28;20045;-72
2022/08/22 06:31:06;;;;;;;15.10;6.93;;;19.00;76.20;;;;;;5008455;28;20187;-72
2022/08/22 06:33:37;;;;;;;18.50;8.55;;;18.90;76.50;;;;;;5012857;28;20377;-73
2022/08/22 06:36:31;;;;;;;16.85;7.60;;;18.80;77.00;;;;;;5016064;28;20042;-72
2022/08/22 06:39:30;;;;;;;14.23;7.65;;;18.80;77.00;;;;;;5006117;28;20550;-72
2022/08/22 06:41:59;;;;;;;17.45;8.93;;;18.80;77.10;;;;;;4986667;28;20050;-73
2022/08/22 06:44:31;;;;;;;12.30;6.85;;;18.70;77.00;;;;;;4995573;28;20030;-73
2022/08/22 06:46:59;;;;;;;16.70;7.07;;;18.80;77.20;;;;;;4993631;28;20033;-72
2022/08/22 06:49:26;;;;;;;14.98;6.75;;;19.00;76.90;;;;;;4986224;28;20088;-72
2022/08/22 06:51:59;;;;;;;10.80;6.18;;;19.10;76.70;;;;;;4982863;28;20026;-72
2022/08/22 06:54:29;;;;;;;16.30;7.63;;;19.10;76.60;;;;;;4989793;28;20486;-72
2022/08/22 06:56:55;;;;;;;14.50;7.28;;;19.30;76.60;;;;;;4988203;28;20033;-73
2022/08/22 06:59:30;;;;;;;18.73;7.22;;;19.40;75.80;;;;;;4991648;28;20097;-73
2022/08/22 07:02:02;;;;;;;14.68;7.57;;;19.50;75.30;;;;;;4993170;28;20910;-73
2022/08/22 07:04:30;;;;;;;15.10;7.55;;;19.50;75.20;;;;;;4987876;28;20113;-72
2022/08/22 07:06:59;;;;;;;18.45;7.90;;;19.60;75.20;;;;;;5000469;28;20788;-72
2022/08/22 07:09:29;;;;;;;13.65;7.97;;;19.60;75.20;;;;;;4992587;28;20027;-73
2022/08/22 07:11:59;;;;;;;15.50;8.18;;;19.70;74.80;;;;;;4989274;28;20625;-73
2022/08/22 07:14:50;;;;;;;16.58;8.85;;;19.80;74.60;;;;;;4985111;28;20022;-73
2022/08/22 07:17:20;;;;;;;13.38;7.32;;;19.90;74.20;;;;;;4998143;28;20034;-74
2022/08/22 07:19:58;;;;;;;17.17;7.68;;;19.90;74.00;;;;;;4989812;28;20065;-73
2022/08/22 07:22:29;;;;;;;15.88;7.65;;;20.00;73.40;;;;;;5019817;28;20048;-73
2022/08/22 07:25:15;;;;;;;16.98;7.40;;;20.00;73.40;;;;;;4997934;28;20031;-72
2022/08/22 07:27:43;;;;;;;19.60;7.63;;;20.10;73.00;;;;;;4996528;28;20153;-73
2022/08/22 07:30:13;;;;;;;15.80;7.72;;;20.10;73.00;;;;;;4997925;28;20057;-73
2022/08/22 07:33:02;;;;;;;15.18;8.02;;;20.10;73.40;;;;;;5000963;28;20026;-74
2022/08/22 07:35:35;;;;;;;15.95;8.15;;;20.20;74.10;;;;;;5017606;28;20124;-73
2022/08/22 07:38:20;;;;;;;13.15;7.53;;;20.20;73.80;;;;;;5016362;28;20045;-75
2022/08/22 07:41:18;;;;;;;17.70;8.68;;;20.10;72.90;;;;;;5009173;28;20374;-73
2022/08/22 07:44:09;;;;;;;17.13;8.43;;;20.10;73.20;;;;;;4967592;28;20080;-73
2022/08/22 07:46:41;;;;;;;13.80;7.78;;;20.10;73.80;;;;;;4992072;28;20049;-73
2022/08/22 07:49:31;;;;;;;14.55;8.27;;;20.20;73.60;;;;;;5000274;28;20034;-73
2022/08/22 07:52:06;;;;;;;17.80;8.60;;;20.20;73.90;;;;;;4992022;28;20478;-74
2022/08/22 07:54:57;;;;;;;16.85;8.02;;;20.20;72.90;;;;;;5032749;28;20030;-72
2022/08/22 07:57:34;;;;;;;17.90;7.93;;;20.40;72.40;;;;;;4986183;28;20047;-73
2022/08/22 08:00:03;;;;;;;17.38;8.25;;;20.50;72.20;;;;;;4992700;28;20489;-74
2022/08/22 08:02:29;;;;;;;17.23;8.18;;;20.50;71.90;;;;;;4999343;28;20071;-74
2022/08/22 08:04:59;;;;;;;14.48;6.40;;;20.60;71.20;;;;;;4997074;28;20110;-73
2022/08/22 08:07:27;;;;;;;14.75;7.35;;;20.60;71.20;;;;;;4995695;28;20092;-73
2022/08/22 08:09:58;;;;;;;14.05;7.78;;;20.70;70.80;;;;;;4989496;28;20517;-72
2022/08/22 08:12:36;;;;;;;12.13;7.80;;;20.80;70.50;;;;;;4991394;28;20525;-72
2022/08/22 08:15:06;;;;;;;10.38;6.50;;;20.90;70.50;;;;;;4997524;28;20045;-73
2022/08/22 08:17:33;;;;;;;14.88;7.40;;;21.10;70.70;;;;;;5009754;28;20060;-73
2022/08/22 08:20:07;;;;;;;15.38;8.07;;;21.20;69.10;;;;;;5007491;28;20300;-73
2022/08/22 08:22:34;;;;;;;15.60;8.13;;;21.20;69.00;;;;;;4999481;28;20034;-73
2022/08/22 08:25:01;;;;;;;16.88;8.57;;;21.30;68.30;;;;;;4989407;28;20360;-73
2022/08/22 08:30:20;;;;;;;18.10;8.52;;;21.50;68.40;;;;;;4991581;28;20381;-73
2022/08/22 08:32:54;;;;;;;17.92;7.90;;;21.60;68.30;;;;;;4987005;28;20061;-74
2022/08/22 08:35:22;;;;;;;13.77;7.00;;;21.60;67.80;;;;;;4995619;28;20433;-73
2022/08/22 08:38:00;;;;;;;15.85;7.85;;;21.70;67.70;;;;;;4995612;28;20286;-73
2022/08/22 08:40:32;;;;;;;14.23;7.72;;;21.90;67.40;;;;;;5013149;28;20553;-73
2022/08/22 08:43:30;;;;;;;13.65;7.90;;;22.10;67.00;;;;;;5011115;28;20064;-75
2022/08/22 08:46:14;;;;;;;16.60;8.10;;;22.10;66.00;;;;;;5006767;28;20173;-73
2022/08/22 08:48:46;;;;;;;;;;;22.10;65.30;;;;;;5006308;28;20130;-73
2022/08/22 08:51:35;;;;;;;15.98;7.65;;;22.20;65.80;;;;;;5015352;28;20007;-73
2022/08/22 08:54:36;;;;;;;15.18;6.35;;;22.40;65.80;;;;;;5008167;28;20038;-75
2022/08/22 08:57:45;;;;;;;15.68;6.40;;;22.50;65.00;;;;;;5013655;28;20077;-73
2022/08/22 09:00:21;;;;;;;13.32;6.22;;;22.70;64.50;;;;;;5008962;28;20176;-73
2022/08/22 09:03:12;;;;;;;12.80;7.20;;;22.80;64.50;;;;;;5014372;28;20030;-73
2022/08/22 09:06:09;;;;;;;12.77;6.32;;;22.90;63.80;;;;;;4998014;28;20532;-73
2022/08/22 09:08:50;;;;;;;13.95;6.30;;;23.00;63.50;;;;;;5003686;28;20033;-73
2022/08/22 09:11:47;;;;;;;19.27;6.60;;;23.10;62.20;;;;;;4992648;28;20026;-73
2022/08/22 09:14:46;;;;;;;12.48;6.20;;;23.30;61.90;;;;;;4995403;28;20061;-73
2022/08/22 09:17:43;;;;;;;16.77;6.70;;;23.40;62.60;;;;;;4992548;28;20165;-73
2022/08/22 09:20:35;;;;;;;16.00;6.30;;;23.60;61.50;;;;;;5001693;28;20027;-73
2022/08/22 09:23:13;;;;;;;12.40;6.25;;;23.80;61.00;;;;;;5019568;28;20026;-74
2022/08/22 09:25:59;;;;;;;10.55;5.00;;;24.10;60.00;;;;;;4980767;28;20046;-75
2022/08/22 09:28:47;;;;;;;11.43;4.90;;;24.30;59.70;;;;;;4989246;28;20061;-73
2022/08/22 09:31:16;;;;;;;13.30;5.30;;;24.60;58.60;;;;;;4987571;28;20034;-73
2022/08/22 09:33:54;;;;;;;11.07;4.40;;;25.00;57.70;;;;;;4987174;28;20125;-73
2022/08/22 09:36:30;;;;;;;10.98;4.68;;;25.30;54.90;;;;;;4994494;28;20033;-73
2022/08/22 09:39:12;;;;;;;11.98;4.28;;;25.40;54.50;;;;;;4992087;28;20450;-74
2022/08/22 09:41:47;;;;;;;11.38;4.57;;;25.60;54.80;;;;;;4999836;28;20339;-73
2022/08/22 09:44:12;;;;;;;9.07;4.18;;;25.50;54.60;;;;;;4985733;28;20133;-74
2022/08/22 09:46:54;;;;;;;10.52;3.65;;;25.60;55.20;;;;;;4996306;28;20058;-73
2022/08/22 09:49:44;;;;;;;14.00;3.60;;;26.00;53.10;;;;;;4990192;28;20129;-72
2022/08/22 09:52:27;;;;;;;9.73;3.38;;;26.10;52.30;;;;;;5030548;28;20062;-73
2022/08/22 09:55:05;;;;;;;9.00;3.72;;;26.50;50.70;;;;;;5004497;28;20358;-72
2022/08/22 09:57:42;;;;;;;13.30;3.90;;;26.70;49.50;;;;;;4991718;28;20076;-74
2022/08/22 10:00:16;;;;;;;9.15;3.22;;;26.80;49.60;;;;;;5016838;28;20041;-73
2022/08/22 10:03:13;;;;;;;11.10;3.03;;;26.90;49.40;;;;;;4998103;28;20022;-73
2022/08/22 10:05:58;;;;;;;11.55;3.92;;;27.10;49.20;;;;;;5008415;28;20064;-74
2022/08/22 10:08:45;;;;;;;10.63;2.95;;;27.10;47.90;;;;;;5014333;28;20465;-73
2022/08/22 10:11:20;;;;;;;10.25;2.95;;;27.30;47.50;;;;;;4999548;28;20301;-73
2022/08/22 10:13:58;;;;;;;9.15;2.60;;;27.20;44.90;;;;;;5011107;28;20045;-73
2022/08/22 10:16:51;;;;;;;8.48;2.65;;;27.20;43.90;;;;;;5007657;28;20032;-74
2022/08/22 10:19:29;;;;;;;5.15;2.20;;;27.40;44.30;;;;;;5054688;28;20029;-73
2022/08/22 10:22:18;;;;;;;9.45;2.30;;;27.10;41.70;;;;;;5005672;28;20111;-75
2022/08/22 10:25:14;;;;;;;8.15;2.17;;;27.20;41.40;;;;;;4989262;28;20393;-75
2022/08/22 10:28:11;;;;;;;6.70;2.20;;;27.60;41.30;;;;;;4990075;28;20049;-74
2022/08/22 10:31:19;;;;;;;10.13;2.25;;;27.90;41.30;;;;;;4987851;28;20030;-73
2022/08/22 10:34:15;;;;;;;9.82;2.65;;;28.10;41.10;;;;;;5002398;28;20377;-73
2022/08/22 10:36:51;;;;;;;8.23;2.53;;;28.10;40.30;;;;;;5001496;28;20048;-73
2022/08/22 10:39:24;;;;;;;10.73;2.90;;;27.80;39.20;;;;;;5015346;28;20049;-72
2022/08/22 10:42:11;;;;;;;8.15;2.25;;;27.90;39.70;;;;;;5009857;28;20068;-72
2022/08/22 10:44:43;;;;;;;10.45;2.53;;;28.10;39.80;;;;;;5035761;28;20428;-73
2022/08/22 10:47:21;;;;;;;7.80;2.28;;;27.90;39.60;;;;;;5006697;28;20083;-73
2022/08/22 10:49:52;;;;;;;9.63;2.33;;;27.80;40.10;;;;;;5014614;28;20499;-73
2022/08/22 10:52:30;;;;;;;6.80;2.28;;;28.10;40.50;;;;;;5016684;28;20022;-73
2022/08/22 10:55:09;;;;;;;9.55;2.95;;;28.00;39.70;;;;;;5016166;28;20057;-73
2022/08/22 10:57:40;;;;;;;8.40;2.50;;;27.90;39.80;;;;;;5019282;28;20025;-72
2022/08/22 11:00:37;;;;;;;9.20;2.50;;;27.80;41.00;;;;;;5014521;28;20057;-75
2022/08/22 11:03:16;;;;;;;5.95;2.30;;;27.70;40.30;;;;;;5019306;28;20034;-72
2022/08/22 11:05:48;;;;;;;9.95;2.80;;;27.70;40.20;;;;;;5007576;28;20049;-73
2022/08/22 11:08:35;;;;;;;7.57;2.40;;;28.10;39.70;;;;;;5012976;28;20041;-73
2022/08/22 11:11:22;;;;;;;8.18;2.47;;;28.50;38.70;;;;;;5016461;28;20054;-73
2022/08/22 11:14:10;;;;;;;6.53;1.90;;;28.40;37.50;;;;;;5006617;28;20190;-73
2022/08/22 11:16:45;;;;;;;7.32;2.20;;;28.50;38.30;;;;;;4989790;28;20053;-73
2022/08/22 11:19:58;;;;;;;7.82;1.90;;;28.60;38.20;;;;;;5022246;28;20057;-73
2022/08/22 11:22:37;;;;;;;6.45;2.22;;;28.10;38.10;;;;;;4981226;28;20034;-72
2022/08/22 11:25:27;;;;;;;8.65;2.65;;;27.70;38.70;;;;;;5001458;28;20373;-74
2022/08/22 11:28:44;;;;;;;8.52;1.92;;;27.70;39.90;;;;;;5010331;28;20482;-73
2022/08/22 11:31:30;;;;;;;7.70;2.33;;;27.90;38.80;;;;;;4968933;28;20026;-72
2022/08/22 11:34:24;;;;;;;5.57;2.20;;;27.70;38.90;;;;;;4998364;28;20042;-72
2022/08/22 11:36:53;;;;;;;8.57;2.30;;;27.50;39.50;;;;;;5023372;28;20172;-74
2022/08/22 11:39:32;;;;;;;10.00;2.35;;;27.30;39.90;;;;;;4989503;28;20134;-73
2022/08/22 11:42:07;;;;;;;8.32;2.58;;;27.30;40.80;;;;;;4990352;28;20351;-73
2022/08/22 11:44:51;;;;;;;8.63;2.45;;;27.60;40.60;;;;;;4992749;28;20117;-73
2022/08/22 11:47:21;;;;;;;8.13;2.35;;;27.90;40.10;;;;;;4997426;28;20096;-73
2022/08/22 11:50:07;;;;;;;8.63;2.33;;;27.90;39.60;;;;;;5002576;28;20053;-73
2022/08/22 11:52:45;;;;;;;7.53;2.13;;;28.20;38.70;;;;;;5002225;28;20026;-73
2022/08/22 11:55:22;;;;;;;9.10;2.58;;;28.50;39.40;;;;;;5020240;28;20038;-73
2022/08/22 11:57:53;;;;;;;8.52;2.45;;;28.60;37.70;;;;;;4988634;28;20423;-72
2022/08/22 12:00:25;;;;;;;7.38;2.22;;;28.50;38.10;;;;;;4988149;28;20402;-73
2022/08/22 12:03:02;;;;;;;10.57;2.75;;;28.70;38.70;;;;;;5001471;28;20061;-73
2022/08/22 12:05:34;;;;;;;7.18;2.17;;;29.10;38.00;;;;;;5000093;28;20092;-73
2022/08/22 12:08:21;;;;;;;10.00;2.63;;;29.50;38.00;;;;;;4992915;28;20038;-74
2022/08/22 12:11:05;;;;;;;9.40;2.50;;;29.50;36.90;;;;;;5001490;28;20026;-75
2022/08/22 12:13:48;;;;;;;11.02;2.50;;;29.40;36.90;;;;;;5001037;28;20033;-73
2022/08/22 12:16:33;;;;;;;9.15;2.55;;;29.70;37.10;;;;;;5001548;28;20242;-72
2022/08/22 12:19:38;;;;;;;12.52;2.30;;;29.80;36.90;;;;;;4988571;28;20429;-73
2022/08/22 12:22:16;;;;;;;8.98;2.50;;;29.70;37.70;;;;;;4985623;28;20037;-73
2022/08/22 12:25:00;;;;;;;6.70;2.03;;;30.10;37.00;;;;;;5000167;28;20053;-73
2022/08/22 12:28:03;;;;;;;9.18;2.58;;;30.30;35.60;;;;;;5026305;28;20043;-74
2022/08/22 12:30:47;;;;;;;12.05;2.38;;;30.60;35.60;;;;;;4986988;28;20497;-73
2022/08/22 12:33:31;;;;;;;;;;;30.60;35.90;;;;;;4989791;28;20113;-73
2022/08/22 12:36:09;;;;;;;6.28;2.33;;;30.60;34.90;;;;;;4992741;28;19917;-73
2022/08/22 12:38:43;;;;;;;10.80;2.58;;;30.40;34.80;;;;;;5018520;28;20025;-74
2022/08/22 12:41:21;;;;;;;8.38;2.30;;;30.50;35.00;;;;;;5011677;28;20037;-73
2022/08/22 12:44:12;;;;;;;6.45;2.40;;;30.50;34.90;;;;;;5015222;28;20034;-73
2022/08/22 12:46:53;;;;;;;6.65;2.03;;;30.30;35.80;;;;;;4997310;28;20470;-73
2022/08/22 12:49:53;;;;;;;8.93;2.72;;;30.40;36.10;;;;;;4989775;28;20034;-73
2022/08/22 12:52:18;;;;;;;6.70;2.17;;;30.50;35.10;;;;;;5019543;28;20117;-73
2022/08/22 12:55:13;;;;;;;9.05;2.65;;;30.60;34.80;;;;;;4992247;28;20117;-72
2022/08/22 12:57:47;;;;;;;6.38;2.00;;;30.20;35.50;;;;;;4976145;28;20424;-73
2022/08/22 13:00:35;;;;;;;8.73;2.42;;;30.30;36.10;;;;;;4988621;28;20041;-73
2022/08/22 13:03:08;;;;;;;6.40;2.20;;;30.50;35.40;;;;;;4994338;28;20533;-75
2022/08/22 13:05:37;;;;;;;8.48;2.10;;;30.40;35.80;;;;;;4985426;28;20518;-73
2022/08/22 13:08:12;;;;;;;8.15;2.15;;;30.60;35.40;;;;;;5001120;28;20037;-73
2022/08/22 13:10:54;;;;;;;6.72;2.30;;;30.60;35.40;;;;;;5000702;28;20351;-72
2022/08/22 13:13:32;;;;;;;8.38;2.60;;;30.50;35.40;;;;;;4986017;28;20705;-75
2022/08/22 13:16:03;;;;;;;8.10;2.13;;;30.40;36.60;;;;;;4995772;28;20033;-73
2022/08/22 13:19:05;;;;;;;7.82;2.20;;;29.90;36.80;;;;;;4995398;28;20467;-75
2022/08/22 13:21:35;;;;;;;7.65;2.40;;;29.20;37.10;;;;;;4986123;28;20038;-73
2022/08/22 13:24:08;;;;;;;6.65;2.25;;;28.90;37.70;;;;;;4993038;28;20038;-75
2022/08/22 13:26:34;;;;;;;5.75;2.33;;;28.80;38.00;;;;;;4998426;28;20129;-73
2022/08/22 13:29:15;;;;;;;8.63;2.08;;;28.90;37.80;;;;;;4999061;28;20129;-73
2022/08/22 13:31:42;;;;;;;6.65;2.20;;;29.40;38.20;;;;;;4991369;28;20463;-73
2022/08/22 13:34:25;;;;;;;8.63;2.17;;;29.80;36.20;;;;;;4992912;28;20440;-72
2022/08/22 13:36:58;;;;;;;6.00;2.10;;;30.00;36.50;;;;;;4990866;28;20417;-72
2022/08/22 13:39:28;;;;;;;6.70;2.00;;;29.90;36.60;;;;;;4987121;28;20096;-72
2022/08/22 13:41:59;;;;;;;9.48;2.30;;;30.10;37.20;;;;;;4989851;28;20034;-73
2022/08/22 13:44:37;;;;;;;7.25;2.47;;;30.60;36.80;;;;;;4998269;28;20030;-72
2022/08/22 13:47:07;;;;;;;5.53;2.13;;;30.80;36.00;;;;;;4990357;28;20042;-73
2022/08/22 13:49:37;;;;;;;9.52;2.60;;;30.60;35.80;;;;;;4990929;28;20093;-73
2022/08/22 13:52:22;;;;;;;6.35;2.35;;;30.40;35.20;;;;;;4992429;28;20266;-73
2022/08/22 13:55:02;;;;;;;7.10;2.10;;;30.30;35.50;;;;;;4996849;28;20109;-73
2022/08/22 13:57:39;;;;;;;5.93;2.10;;;30.30;35.20;;;;;;4987689;28;20152;-74